Accueil
METAR-TAF:

METAR-TAF

Aéroports :

Aéroport international de Bâle-Mulhouse-Fribourg

Bâle-Mulhouse, France

latitude: 47-36N, longitude: 007-31E, altitude: 270 m

Observation

Le bulletin a été fait il y a 36 minutes, à 01:30 UTC
Vent 7 kt de ouest/nord-ouest
Température 6°C
Humidité 81%
Pression 1022 hPa
Visibilité 10 km ou plus

METAR: LFSB 100130Z AUTO 29007KT 9999 FEW031/// BKN048/// OVC058/// ///TCU 06/03 Q1022 TEMPO 27015G25KT

Heure: 03:06 (02:06 UTC)

Prévision

Le bulletin a été fait il y a 3 heures et 6 minutes, à 23:00 UTC
Prévision valable du 10 à 00 UTC au 10 à 24 UTC
Vent 10 kt de ouest
Visibilité 10 km ou plus
Nuages fragmentés à une hauteur de 4000 ft
Temporairement
du 10 à 00 UTC au 10 à 12 UTC
Vent 15 kt de ouest avec des rafales jusqu'à 25 kt
Quelques nuages à une hauteur de 2500 ft, Cumulus congestus.
faibles averses de pluie

TAF: LFSB 092300Z 1000/1024 26010KT 9999 BKN040 TEMPO 1000/1012 27015G25KT -SHRA FEW025TCU

Observations et prévisions météorologiques de plus de 4000 aéroports (messages METAR et TAF).

Les stations disponibles sont représentées par des disques jaunes et rouges sur la carte.

Passer la souris dessus pour voir le nom de la station.

Cliquer dessus pour voir les observations et prévisions météorologiques.

Pour changer de carte: cliquez sur les boutons verts avec une croix noire pour zoomer, sur le bouton vert avec un tiret pour effectuer un zoom arrière, ou sur les flèches vertes pour les cartes adjacentes.


METAR-TAF: